Time;durP1;ratioP1;P1;durP2;ratioP2;P2;SDS_P1;SDS_P2;PMS_P1;PMS_P2;Temp;Humidity;BMP_temperature;BMP_pressure;BME280_temperature;BME280_humidity;BME280_pressure;Samples;Min_cycle;Max_cycle;Signal;HPM_P1;HPM_P2
2022/10/21 00:01:25;;;;;;;17.60;10.20;;;;;;;4.35;69.11;100915.83;99913;1297;110226;-75
2022/10/21 00:03:52;;;;;;;14.90;10.00;;;;;;;4.33;69.18;100909.98;99934;1296;107192;-75
2022/10/21 00:06:19;;;;;;;15.70;10.40;;;;;;;4.30;69.03;100907.01;99805;1304;138477;-74
2022/10/21 00:08:46;;;;;;;17.10;9.90;;;;;;;4.27;69.14;100905.96;99812;1293;106095;-75
2022/10/21 00:11:14;;;;;;;15.90;9.90;;;;;;;4.24;68.93;100906.83;99721;1290;137436;-75
2022/10/21 00:13:41;;;;;;;15.90;9.60;;;;;;;4.22;69.23;100903.38;99891;1296;110143;-76
2022/10/21 00:16:11;;;;;;;13.80;9.60;;;;;;;4.20;69.11;100897.52;99918;1290;109158;-75
2022/10/21 00:18:41;;;;;;;15.60;10.20;;;;;;;4.20;69.39;100894.42;99759;1290;138800;-74
2022/10/21 00:21:09;;;;;;;15.50;9.20;;;;;;;4.19;69.23;100896.14;99909;1298;106860;-73
2022/10/21 00:23:37;;;;;;;18.10;10.10;;;;;;;4.16;69.34;100886.67;99917;1284;137751;-75
2022/10/21 00:26:04;;;;;;;17.70;10.60;;;;;;;4.14;69.13;100887.34;99897;1297;109953;-76
2022/10/21 00:28:31;;;;;;;17.10;10.70;;;;;;;4.13;69.26;100885.44;99910;1304;106984;-75
2022/10/21 00:30:58;;;;;;;17.00;11.00;;;;;;;4.11;69.30;100889.03;99840;1297;138829;-75
2022/10/21 00:33:28;;;;;;;17.50;10.60;;;;;;;4.09;69.30;100892.98;99948;1292;107544;-74
2022/10/21 00:35:56;;;;;;;18.30;10.90;;;;;;;4.05;69.40;100888.15;99865;1281;137206;-75
2022/10/21 00:38:23;;;;;;;16.80;10.70;;;;;;;4.02;69.31;100887.63;99921;1292;108857;-73
2022/10/21 00:40:51;;;;;;;16.40;10.00;;;;;;;4.00;69.41;100890.55;99935;1291;107601;-73
2022/10/21 00:43:18;;;;;;;20.40;11.10;;;;;;;4.00;69.58;100889.17;99791;1284;137734;-77
2022/10/21 00:45:47;;;;;;;17.10;10.20;;;;;;;4.00;69.45;100886.93;99961;1297;107553;-74
2022/10/21 00:48:20;;;;;;;18.70;10.60;;;;;;;4.00;69.59;100879.70;99839;1298;138778;-74
2022/10/21 00:50:54;;;;;;;18.70;11.60;;;;;;;3.99;69.48;100869.20;99958;1296;109421;-73
2022/10/21 00:53:22;;;;;;;22.20;12.70;;;;;;;3.97;69.52;100875.40;101285;1292;137299;-73
2022/10/21 00:55:55;;;;;;;19.40;11.80;;;;;;;3.94;69.54;100873.30;100740;1294;96541;-74
2022/10/21 00:58:26;;;;;;;23.50;12.60;;;;;;;3.91;69.58;100878.61;99902;1296;106670;-74
2022/10/21 01:00:57;;;;;;;23.70;12.30;;;;;;;3.86;69.74;100874.30;99822;1292;137562;-74
2022/10/21 01:03:26;;;;;;;21.90;13.00;;;;;;;3.82;69.61;100875.83;99913;1292;110437;-76
2022/10/21 01:05:56;;;;;;;22.80;13.80;;;;;;;3.79;69.60;100878.39;99752;1285;138821;-74
2022/10/21 01:08:24;;;;;;;20.70;13.40;;;;;;;3.77;70.05;100869.94;99940;1291;96989;-75
2022/10/21 01:10:52;;;;;;;23.70;13.70;;;;;;;3.73;70.17;100866.65;99966;1298;106883;-74
2022/10/21 01:13:26;;;;;;;24.00;14.20;;;;;;;3.72;70.14;100875.41;99832;1292;137718;-75
2022/10/21 01:16:02;;;;;;;26.50;14.90;;;;;;;3.67;70.13;100874.54;99836;1297;110039;-75
2022/10/21 01:18:36;;;;;;;28.20;15.30;;;;;;;3.63;70.09;100871.60;101253;1284;138255;-76
2022/10/21 01:21:30;;;;;;;22.40;13.90;;;;;;;3.61;70.33;100871.59;101354;1299;94715;-76
2022/10/21 01:24:32;;;;;;;26.80;14.80;;;;;;;3.59;70.28;100869.16;99739;1290;137787;-76
2022/10/21 01:27:13;;;;;;;24.70;15.60;;;;;;;3.56;70.40;100872.39;99893;1290;96485;-74
2022/10/21 01:30:05;;;;;;;24.30;14.80;;;;;;;3.52;70.64;100874.27;99802;1283;137243;-76
2022/10/21 01:32:46;;;;;;;28.00;15.90;;;;;;;3.46;70.66;100872.00;99963;1290;107629;-74
2022/10/21 01:35:19;;;;;;;29.90;16.50;;;;;;;3.39;70.84;100873.48;101340;1292;137766;-75
2022/10/21 01:37:56;;;;;;;27.00;16.20;;;;;;;3.32;70.61;100871.90;101365;1291;107136;-79
2022/10/21 01:40:26;;;;;;;32.10;17.70;;;;;;;3.26;70.78;100865.34;101439;1298;94440;-74
2022/10/21 01:42:56;;;;;;;28.80;15.70;;;;;;;3.21;70.77;100862.52;100726;1278;138285;-75
2022/10/21 01:45:31;;;;;;;27.40;15.50;;;;;;;3.17;71.13;100860.77;99892;1290;108771;-75
2022/10/21 01:48:02;;;;;;;28.20;15.00;;;;;;;3.13;71.15;100847.18;99767;1293;138374;-75
2022/10/21 01:50:34;;;;;;;26.20;15.80;;;;;;;3.09;71.19;100837.36;100074;1294;106640;-76
2022/10/21 01:53:05;;;;;;;26.00;15.40;;;;;;;3.08;71.28;100833.23;99794;1291;96892;-75
2022/10/21 01:55:33;;;;;;;26.70;14.80;;;;;;;3.08;71.14;100830.31;101460;1297;109823;-75
2022/10/21 01:58:02;;;;;;;23.40;14.80;;;;;;;3.07;71.29;100829.96;101366;1290;107446;-75
2022/10/21 02:00:31;;;;;;;24.20;15.40;;;;;;;3.06;71.38;100822.91;99791;1291;137398;-75
2022/10/21 02:03:00;;;;;;;27.00;16.30;;;;;;;3.03;71.40;100822.52;100176;1291;107561;-77
2022/10/21 02:05:32;;;;;;;27.50;16.10;;;;;;;2.97;71.53;100814.58;99923;1292;139085;-75
2022/10/21 02:07:59;;;;;;;30.80;15.50;;;;;;;2.93;71.64;100811.81;99810;1290;110082;-80
2022/10/21 02:10:30;;;;;;;25.40;15.30;;;;;;;2.89;71.40;100811.09;99820;1298;105851;-76
2022/10/21 02:13:00;;;;;;;29.20;16.20;;;;;;;2.85;71.60;100815.34;100711;1291;137906;-75
2022/10/21 02:15:29;;;;;;;28.40;15.50;;;;;;;2.82;71.65;100812.23;101313;1294;107943;-76
2022/10/21 02:18:03;;;;;;;25.00;14.90;;;;;;;2.80;71.62;100806.02;100007;1291;138306;-75
2022/10/21 02:20:34;;;;;;;24.20;14.70;;;;;;;2.79;71.57;100797.08;99740;1292;111547;-75
2022/10/21 02:23:02;;;;;;;23.10;14.20;;;;;;;2.79;71.69;100791.59;99834;1284;106713;-77
2022/10/21 02:25:36;;;;;;;23.40;14.70;;;;;;;2.80;71.78;100792.98;99861;1299;96521;-75
2022/10/21 02:28:04;;;;;;;24.40;15.80;;;;;;;2.80;71.61;100791.95;99827;1290;107234;-75
2022/10/21 02:30:51;;;;;;;22.10;14.00;;;;;;;2.79;71.65;100789.36;99591;1291;137804;-77
2022/10/21 02:33:27;;;;;;;25.50;15.00;;;;;;;2.79;71.62;100778.36;99797;1292;109937;-76
2022/10/21 02:36:03;;;;;;;24.00;14.20;;;;;;;2.76;71.66;100767.19;99661;1291;137323;-77
2022/10/21 02:38:32;;;;;;;;;;;;;;;2.76;71.78;100765.30;99796;1291;96470;-76
2022/10/21 02:41:04;;;;;;;23.10;13.20;;;;;;;2.75;71.77;100751.73;99729;1295;108119;-76
2022/10/21 02:43:35;;;;;;;20.00;13.60;;;;;;;2.76;71.78;100750.70;99802;1292;96370;-77
2022/10/21 02:46:07;;;;;;;20.70;12.80;;;;;;;2.77;71.74;100754.49;99771;1282;109516;-75
2022/10/21 02:48:37;;;;;;;22.90;13.50;;;;;;;2.79;71.81;100758.63;99728;1297;138188;-76
2022/10/21 02:51:05;;;;;;;23.70;13.90;;;;;;;2.80;71.75;100768.77;99884;1297;97321;-75
2022/10/21 02:53:32;;;;;;;23.90;14.10;;;;;;;2.81;71.81;100770.14;99742;1292;139905;-76
2022/10/21 02:56:00;;;;;;;22.30;12.80;;;;;;;2.81;71.77;100756.06;99856;1284;96476;-76
2022/10/21 02:58:28;;;;;;;23.50;14.80;;;;;;;2.81;71.66;100751.77;99832;1288;109787;-80
2022/10/21 03:00:55;;;;;;;20.70;13.00;;;;;;;2.81;71.89;100749.19;99758;1291;137250;-76
2022/10/21 03:03:23;;;;;;;24.70;13.90;;;;;;;2.77;72.14;100749.34;99876;1296;96611;-75
2022/10/21 03:05:50;;;;;;;20.70;13.40;;;;;;;2.76;71.99;100739.89;99753;1290;137804;-76
2022/10/21 03:08:18;;;;;;;21.10;12.90;;;;;;;2.75;72.40;100745.72;99842;1296;96474;-77
2022/10/21 03:10:48;;;;;;;21.10;13.50;;;;;;;2.74;72.36;100739.20;99925;1291;110099;-77
2022/10/21 03:13:19;;;;;;;23.30;13.20;;;;;;;2.75;72.35;100738.67;99746;1299;139207;-76
2022/10/21 03:15:46;;;;;;;20.70;13.30;;;;;;;2.75;72.34;100741.95;99923;1291;96479;-74
2022/10/21 03:18:13;;;;;;;20.90;12.80;;;;;;;2.76;72.33;100738.16;99795;1296;137713;-76
2022/10/21 03:20:41;;;;;;;20.10;12.50;;;;;;;2.75;72.41;100743.48;99889;1293;96481;-75
2022/10/21 03:23:08;;;;;;;21.90;12.90;;;;;;;2.73;72.45;100743.83;99743;1296;137903;-75
2022/10/21 03:25:35;;;;;;;19.40;12.90;;;;;;;2.71;72.29;100727.84;99851;1294;107311;-75
2022/10/21 03:28:02;;;;;;;23.20;12.80;;;;;;;2.68;72.29;100728.31;99906;1290;96461;-79
2022/10/21 03:30:29;;;;;;;21.70;13.60;;;;;;;2.68;72.51;100725.90;99822;1290;139078;-76
2022/10/21 03:32:56;;;;;;;23.00;12.80;;;;;;;2.66;72.56;100716.79;99935;1292;96483;-77
2022/10/21 03:35:23;;;;;;;23.10;13.90;;;;;;;2.64;72.40;100710.77;99851;1295;138010;-76
2022/10/21 03:37:51;;;;;;;21.70;13.20;;;;;;;2.61;72.61;100700.11;99794;1290;107507;-75
2022/10/21 03:40:18;;;;;;;22.40;13.50;;;;;;;2.60;72.80;100693.06;100094;1291;96360;-75
2022/10/21 03:42:45;;;;;;;21.10;12.80;;;;;;;2.58;72.99;100694.42;101364;1292;137265;-76
2022/10/21 03:45:13;;;;;;;22.70;13.00;;;;;;;2.54;72.80;100693.73;101405;1298;94404;-78
2022/10/21 03:47:40;;;;;;;21.80;12.90;;;;;;;2.52;73.04;100688.55;101314;1292;140407;-76
2022/10/21 03:50:09;;;;;;;21.60;13.20;;;;;;;2.52;73.10;100697.46;101369;1300;108819;-77
2022/10/21 03:52:42;;;;;;;20.50;12.60;;;;;;;2.51;73.17;100701.91;101398;1292;94360;-75
2022/10/21 03:55:10;;;;;;;22.20;12.90;;;;;;;2.50;73.20;100696.06;101311;1295;139625;-75
2022/10/21 03:57:37;;;;;;;23.30;13.70;;;;;;;2.49;73.20;100685.59;101324;1301;94694;-76
2022/10/21 04:00:07;;;;;;;22.80;13.80;;;;;;;2.49;73.10;100689.88;101300;1285;138673;-76
2022/10/21 04:02:38;;;;;;;22.40;13.80;;;;;;;2.47;73.05;100698.45;101366;1297;107659;-78
2022/10/21 04:05:07;;;;;;;23.80;13.20;;;;;;;2.46;72.94;100697.75;101421;1297;94359;-80
2022/10/21 04:07:34;;;;;;;26.00;14.20;;;;;;;2.45;72.93;100689.34;101329;1301;105636;-76
2022/10/21 04:10:01;;;;;;;22.00;14.20;;;;;;;2.42;72.88;100688.13;101353;1298;94698;-78
2022/10/21 04:12:28;;;;;;;21.30;14.00;;;;;;;2.41;72.90;100688.11;101163;1298;137627;-76
2022/10/21 04:14:55;;;;;;;24.40;14.70;;;;;;;2.40;72.94;100689.14;101340;1297;107621;-76
2022/10/21 04:17:22;;;;;;;24.10;14.00;;;;;;;2.38;72.78;100690.15;101287;1294;137721;-76
2022/10/21 04:19:49;;;;;;;23.40;14.20;;;;;;;2.35;72.69;100687.90;101392;1291;105564;-76
2022/10/21 04:22:16;;;;;;;26.70;15.20;;;;;;;2.33;72.89;100686.84;101360;1292;94541;-75
2022/10/21 04:24:43;;;;;;;21.80;13.60;;;;;;;2.30;72.79;100678.23;101318;1292;137904;-75
2022/10/21 04:27:11;;;;;;;22.70;14.20;;;;;;;2.28;73.04;100674.10;101374;1280;109607;-77
2022/10/21 04:29:38;;;;;;;21.50;13.80;;;;;;;2.25;73.10;100674.42;101109;1284;138154;-77
2022/10/21 04:32:06;;;;;;;25.20;15.10;;;;;;;2.22;72.98;100669.26;99772;1296;108022;-75
2022/10/21 04:34:33;;;;;;;22.50;14.10;;;;;;;2.20;72.98;100661.35;99811;1290;96470;-75
2022/10/21 04:37:01;;;;;;;25.20;15.50;;;;;;;2.19;73.13;100655.85;99702;1295;137743;-76
2022/10/21 04:39:31;;;;;;;27.40;14.50;;;;;;;2.17;72.95;100652.41;99842;1291;107820;-80
2022/10/21 04:41:59;;;;;;;23.30;14.30;;;;;;;2.16;73.19;100649.98;99773;1292;137890;-79
2022/10/21 04:44:26;;;;;;;21.50;13.20;;;;;;;2.14;73.10;100653.73;100557;1297;107499;-78
2022/10/21 04:46:54;;;;;;;24.50;14.70;;;;;;;2.11;73.19;100652.52;101393;1297;94709;-76
2022/10/21 04:49:21;;;;;;;24.00;14.30;;;;;;;2.10;73.17;100651.64;101295;1297;139137;-76
2022/10/21 04:51:48;;;;;;;23.40;14.20;;;;;;;2.09;73.21;100647.70;101368;1292;107895;-78
2022/10/21 04:54:15;;;;;;;26.20;15.10;;;;;;;2.08;73.17;100654.37;100677;1283;137724;-76
2022/10/21 04:56:42;;;;;;;24.80;15.50;;;;;;;2.08;73.12;100644.77;99889;1291;107984;-75
2022/10/21 04:59:10;;;;;;;25.50;15.40;;;;;;;2.08;73.10;100638.60;99738;1292;137346;-77
2022/10/21 05:01:37;;;;;;;23.10;15.30;;;;;;;2.09;73.18;100645.80;100047;1297;111887;-77
2022/10/21 05:04:04;;;;;;;26.30;15.00;;;;;;;2.09;73.10;100643.58;101369;1290;106622;-77
2022/10/21 05:06:31;;;;;;;23.50;14.50;;;;;;;2.09;73.19;100632.09;101308;1297;138270;-78
2022/10/21 05:08:59;;;;;;;25.90;13.90;;;;;;;2.11;73.04;100632.77;100719;1297;107477;-76
2022/10/21 05:11:26;;;;;;;24.00;14.50;;;;;;;2.13;73.05;100629.71;99739;1297;142656;-76
2022/10/21 05:13:53;;;;;;;22.30;13.30;;;;;;;2.15;73.03;100632.13;100809;1299;109866;-75
2022/10/21 05:16:22;;;;;;;22.50;13.50;;;;;;;2.17;73.00;100614.67;101426;1291;108087;-75
2022/10/21 05:18:50;;;;;;;23.80;13.40;;;;;;;2.18;72.96;100614.33;101338;1292;138758;-76
2022/10/21 05:21:17;;;;;;;22.80;14.30;;;;;;;2.18;73.00;100604.55;101386;1299;107952;-76
2022/10/21 05:23:44;;;;;;;21.70;13.30;;;;;;;2.18;72.96;100601.80;99116;1299;1002845;-78
2022/10/21 05:26:11;;;;;;;19.80;12.70;;;;;;;2.17;73.03;100592.02;101424;1294;110570;-76
2022/10/21 05:28:38;;;;;;;22.40;13.50;;;;;;;2.21;73.19;100579.70;101383;1288;106822;-74
2022/10/21 05:31:05;;;;;;;22.40;13.60;;;;;;;2.28;73.29;100580.93;101294;1298;138526;-77
2022/10/21 05:33:33;;;;;;;22.30;12.90;;;;;;;2.32;72.90;100582.67;101335;1299;107674;-76
2022/10/21 05:36:03;;;;;;;20.90;13.60;;;;;;;2.36;72.84;100587.35;101262;1292;138382;-77
2022/10/21 05:38:31;;;;;;;21.50;12.90;;;;;;;2.43;72.91;100578.46;101401;1290;109921;-79
2022/10/21 05:40:59;;;;;;;22.00;13.80;;;;;;;2.51;72.76;100591.38;101391;1292;108149;-80
2022/10/21 05:43:27;;;;;;;23.60;14.20;;;;;;;2.64;72.48;100584.75;101309;1297;139067;-75
2022/10/21 05:45:54;;;;;;;22.30;12.40;;;;;;;2.76;72.27;100576.94;101388;1297;108870;-75
2022/10/21 05:48:21;;;;;;;19.60;12.60;;;;;;;2.91;71.93;100578.55;101309;1297;137606;-76
2022/10/21 05:50:51;;;;;;;22.50;13.50;;;;;;;3.07;71.47;100583.23;101425;1290;110155;-75
2022/10/21 05:53:18;;;;;;;20.00;12.20;;;;;;;3.23;71.28;100583.81;100369;1292;137993;-76
2022/10/21 05:55:46;;;;;;;21.00;12.70;;;;;;;3.42;71.04;100582.15;99891;1297;96429;-75
2022/10/21 05:58:13;;;;;;;23.00;12.80;;;;;;;3.48;70.26;100585.60;99872;1291;106799;-76
2022/10/21 06:00:40;;;;;;;21.20;12.20;;;;;;;3.37;70.18;100578.01;99692;1291;137603;-76
2022/10/21 06:03:08;;;;;;;19.50;12.30;;;;;;;3.26;70.17;100584.86;99732;1290;111997;-78
2022/10/21 06:05:36;;;;;;;19.20;11.50;;;;;;;3.18;70.26;100575.72;99630;1290;138445;-76
2022/10/21 06:08:04;;;;;;;22.90;11.90;;;;;;;3.15;70.23;100599.92;99601;1297;139420;-76
2022/10/21 06:10:31;;;;;;;22.30;12.00;;;;;;;3.11;70.42;100589.98;99652;1300;106215;-76
2022/10/21 06:12:59;;;;;;;21.40;12.20;;;;;;;3.05;70.50;100584.95;99742;1294;96840;-77
2022/10/21 06:15:26;;;;;;;21.40;12.70;;;;;;;3.01;70.64;100583.73;100736;1294;138279;-74
2022/10/21 06:17:54;;;;;;;19.00;12.20;;;;;;;3.00;70.53;100583.38;100079;1299;107514;-75
2022/10/21 06:20:21;;;;;;;17.70;11.90;;;;;;;2.98;70.66;100593.00;99638;1293;139211;-75
2022/10/21 06:22:48;;;;;;;20.40;12.00;;;;;;;2.95;70.67;100593.84;99850;1293;106542;-74
2022/10/21 06:25:15;;;;;;;22.70;12.80;;;;;;;2.92;70.82;100591.09;99801;1295;96485;-74
2022/10/21 06:27:48;;;;;;;20.50;12.60;;;;;;;2.94;70.78;100591.95;99657;1301;137784;-74
2022/10/21 06:30:15;;;;;;;22.00;12.30;;;;;;;2.95;70.80;100589.56;99771;1293;107996;-74
2022/10/21 06:32:42;;;;;;;18.20;11.90;;;;;;;2.98;70.75;100590.25;99735;1297;137559;-74
2022/10/21 06:35:10;;;;;;;20.80;11.90;;;;;;;3.01;70.62;100594.04;99794;1299;108208;-79
2022/10/21 06:37:37;;;;;;;19.80;12.40;;;;;;;3.06;70.58;100590.29;99710;1298;96493;-73
2022/10/21 06:40:05;;;;;;;20.70;12.30;;;;;;;3.09;70.54;100586.52;99759;1292;109431;-77
2022/10/21 06:42:33;;;;;;;19.50;12.40;;;;;;;3.16;70.56;100584.30;99734;1294;107029;-75
2022/10/21 06:45:00;;;;;;;23.20;12.40;;;;;;;3.38;70.35;100585.75;99809;1299;137286;-74
2022/10/21 06:47:27;;;;;;;21.10;12.40;;;;;;;3.66;69.72;100577.02;99733;1288;107862;-75
2022/10/21 06:49:54;;;;;;;21.80;12.00;;;;;;;3.95;69.33;100584.10;99785;1294;139235;-74
2022/10/21 06:52:21;;;;;;;18.00;11.50;;;;;;;4.23;68.88;100578.58;99864;1286;109824;-77
2022/10/21 06:54:49;;;;;;;17.30;11.40;;;;;;;4.67;68.24;100574.89;99795;1283;107497;-74
2022/10/21 06:57:17;;;;;;;19.60;11.90;;;;;;;4.90;67.22;100576.88;99683;1300;137361;-75
2022/10/21 06:59:44;;;;;;;17.20;11.70;;;;;;;5.13;66.59;100579.52;99772;1292;108821;-76
2022/10/21 07:02:11;;;;;;;18.20;11.30;;;;;;;5.26;66.01;100574.81;99648;1292;137522;-74
2022/10/21 07:04:53;;;;;;;19.50;11.60;;;;;;;5.54;65.73;100579.30;99738;1293;109895;-76
2022/10/21 07:07:22;;;;;;;20.10;11.80;;;;;;;5.79;65.06;100585.34;99819;1299;107449;-74
2022/10/21 07:09:49;;;;;;;21.20;12.20;;;;;;;5.95;64.61;100588.71;99759;1294;137530;-75
2022/10/21 07:12:17;;;;;;;18.80;11.90;;;;;;;5.91;63.68;100592.19;99797;1301;107479;-74
2022/10/21 07:14:44;;;;;;;20.00;11.70;;;;;;;5.88;63.79;100585.11;99677;1300;139420;-75
2022/10/21 07:17:28;;;;;;;19.60;11.90;;;;;;;5.96;63.73;100574.20;99955;1296;110646;-74
2022/10/21 07:19:56;;;;;;;18.60;12.10;;;;;;;6.01;62.81;100580.20;100007;1293;138189;-75
2022/10/21 07:22:23;;;;;;;19.00;12.60;;;;;;;6.03;62.65;100588.46;99867;1301;96489;-75
2022/10/21 07:24:50;;;;;;;20.10;12.30;;;;;;;6.20;62.67;100567.27;99834;1294;107640;-74
2022/10/21 07:27:17;;;;;;;19.90;12.60;;;;;;;6.40;63.12;100553.26;99755;1293;138446;-75
2022/10/21 07:29:44;;;;;;;20.20;12.40;;;;;;;6.59;62.32;100552.02;99973;1301;109368;-74
2022/10/21 07:32:12;;;;;;;16.00;12.00;;;;;;;6.85;61.97;100546.02;99779;1291;137601;-74
2022/10/21 07:34:39;;;;;;;19.60;11.80;;;;;;;6.99;61.28;100562.95;99868;1290;96395;-74
2022/10/21 07:37:06;;;;;;;19.80;12.20;;;;;;;7.01;60.89;100546.86;99905;1289;106653;-76
2022/10/21 07:39:33;;;;;;;20.30;12.40;;;;;;;7.04;61.00;100547.00;99817;1297;138951;-74
2022/10/21 07:42:01;;;;;;;18.70;11.90;;;;;;;7.02;61.09;100546.85;99817;1287;110185;-73
2022/10/21 07:44:28;;;;;;;24.70;13.20;;;;;;;6.92;60.97;100547.82;99643;1300;137148;-73
2022/10/21 07:46:55;;;;;;;21.80;12.10;;;;;;;6.69;60.95;100540.67;99796;1291;96429;-74
2022/10/21 07:49:23;;;;;;;18.00;11.90;;;;;;;6.40;61.02;100543.23;99880;1294;108835;-74
2022/10/21 07:51:52;;;;;;;17.10;12.50;;;;;;;6.12;61.87;100546.79;99710;1291;137110;-74
2022/10/21 07:54:20;;;;;;;17.90;12.20;;;;;;;5.96;62.40;100547.11;99794;1291;109335;-74
2022/10/21 07:56:50;;;;;;;21.20;13.50;;;;;;;5.94;62.69;100538.84;99782;1292;137382;-75
2022/10/21 07:59:19;;;;;;;20.50;12.60;;;;;;;5.98;63.12;100526.73;99896;1299;96577;-74
2022/10/21 08:01:46;;;;;;;19.40;12.40;;;;;;;5.98;63.10;100516.20;99790;1293;137342;-74
2022/10/21 08:04:21;;;;;;;18.50;12.60;;;;;;;5.98;63.47;100516.20;99777;1301;96453;-78
2022/10/21 08:06:49;;;;;;;18.60;13.00;;;;;;;5.95;63.36;100517.96;100103;1293;109769;-80
2022/10/21 08:09:17;;;;;;;19.70;12.80;;;;;;;5.83;63.12;100516.81;99699;1294;139167;-75
2022/10/21 08:11:44;;;;;;;18.20;12.20;;;;;;;5.70;63.57;100525.36;99778;1292;96532;-75
2022/10/21 08:14:12;;;;;;;20.30;12.50;;;;;;;5.57;63.64;100529.10;99653;1293;139338;-75
2022/10/21 08:16:40;;;;;;;20.10;12.40;;;;;;;5.39;63.78;100522.84;99781;1300;96362;-74
2022/10/21 08:19:07;;;;;;;20.80;12.40;;;;;;;5.29;64.34;100513.77;99832;1300;109194;-73
2022/10/21 08:21:36;;;;;;;18.30;12.50;;;;;;;5.28;64.88;100513.60;99665;1291;137200;-73
2022/10/21 08:24:05;;;;;;;19.80;12.60;;;;;;;5.39;64.81;100505.93;99799;1294;96639;-74
2022/10/21 08:26:32;;;;;;;21.40;12.10;;;;;;;5.62;64.89;100510.08;99688;1295;137146;-74
2022/10/21 08:28:59;;;;;;;19.50;12.30;;;;;;;5.80;64.50;100507.17;99847;1293;96458;-75
2022/10/21 08:31:26;;;;;;;18.60;12.20;;;;;;;5.83;64.52;100501.27;99875;1291;109848;-74
2022/10/21 08:33:54;;;;;;;20.70;12.40;;;;;;;5.86;64.56;100496.77;99769;1284;137810;-75
2022/10/21 08:36:23;;;;;;;19.20;12.80;;;;;;;5.88;64.45;100494.84;99902;1298;97008;-73
2022/10/21 08:38:51;;;;;;;18.90;12.80;;;;;;;5.91;64.54;100485.17;99852;1291;137180;-74
2022/10/21 08:41:36;;;;;;;21.00;12.40;;;;;;;6.04;64.55;100486.27;99905;1285;94746;-74
2022/10/21 08:44:07;;;;;;;18.00;12.00;;;;;;;6.19;64.52;100475.25;99769;1293;137310;-74
2022/10/21 08:46:39;;;;;;;18.20;11.50;;;;;;;6.32;64.27;100476.31;99876;1292;107862;-75
2022/10/21 08:49:13;;;;;;;18.30;11.70;;;;;;;6.43;64.18;100473.58;99943;1293;96378;-74
2022/10/21 08:51:46;;;;;;;19.70;12.80;;;;;;;6.50;63.83;100476.64;101222;1292;137830;-74
2022/10/21 08:54:22;;;;;;;18.70;12.30;;;;;;;6.48;63.62;100477.34;101018;1271;96487;-73
2022/10/21 08:56:55;;;;;;;22.00;13.20;;;;;;;6.43;63.92;100471.17;100014;1298;137242;-74
2022/10/21 08:59:24;;;;;;;20.60;12.70;;;;;;;6.40;63.80;100468.61;100058;1297;107146;-74
2022/10/21 09:02:01;;;;;;;20.20;12.90;;;;;;;6.36;64.25;100468.66;99980;1298;137580;-74
2022/10/21 09:04:36;;;;;;;20.20;12.10;;;;;;;6.34;64.24;100460.40;100512;1296;107331;-73
2022/10/21 09:07:12;;;;;;;20.00;13.10;;;;;;;6.30;64.21;100465.98;100139;1289;96580;-76
2022/10/21 09:09:46;;;;;;;20.30;11.60;;;;;;;6.21;64.06;100458.13;100054;1291;139590;-74
2022/10/21 09:12:20;;;;;;;19.40;11.70;;;;;;;6.20;64.38;100442.09;100212;1287;107827;-74
2022/10/21 09:15:06;;;;;;;19.70;11.50;;;;;;;6.35;64.74;100439.15;100035;1290;139030;-74
2022/10/21 09:17:56;;;;;;;19.60;10.80;;;;;;;6.74;64.65;100437.44;100101;1289;107310;-75
2022/10/21 09:20:37;;;;;;;18.20;12.20;;;;;;;7.24;64.08;100431.18;99830;1284;137917;-74
2022/10/21 09:23:28;;;;;;;17.10;11.90;;;;;;;7.69;63.67;100415.73;100067;1290;109210;-75
2022/10/21 09:26:00;;;;;;;17.00;11.60;;;;;;;8.06;63.27;100417.99;100330;1292;138782;-76
2022/10/21 09:28:28;;;;;;;19.70;11.50;;;;;;;8.27;62.42;100416.38;100023;1282;95446;-75
2022/10/21 09:30:57;;;;;;;17.10;11.30;;;;;;;8.38;61.87;100416.53;100032;1291;107714;-77
2022/10/21 09:33:28;;;;;;;25.50;11.70;;;;;;;8.54;61.87;100416.89;99994;1289;137664;-75
2022/10/21 09:36:03;;;;;;;20.70;11.60;;;;;;;8.82;61.51;100410.57;100233;1296;109355;-75
2022/10/21 09:38:40;;;;;;;15.90;10.20;;;;;;;9.12;61.16;100405.71;99935;1294;137559;-75
2022/10/21 09:41:14;;;;;;;23.90;11.30;;;;;;;9.27;60.27;100406.73;100148;1281;96383;-76
2022/10/21 09:43:41;;;;;;;18.20;11.00;;;;;;;9.37;59.80;100401.98;99893;1291;137161;-76
2022/10/21 09:46:13;;;;;;;22.00;11.10;;;;;;;9.41;59.19;100392.49;100129;1292;96498;-75
2022/10/21 09:48:45;;;;;;;19.70;10.30;;;;;;;9.32;58.96;100403.48;100154;1281;109432;-75
2022/10/21 09:51:38;;;;;;;17.30;10.90;;;;;;;9.22;59.25;100405.63;100025;1285;137835;-75
2022/10/21 09:54:11;;;;;;;20.30;10.90;;;;;;;9.31;59.43;100401.60;100030;1284;96488;-74
2022/10/21 09:56:43;;;;;;;17.10;9.70;;;;;;;9.40;58.86;100396.87;100379;1284;137952;-75
2022/10/21 09:59:13;;;;;;;17.40;10.60;;;;;;;9.46;58.92;100395.31;100354;1291;96452;-74
2022/10/21 10:01:43;;;;;;;15.20;10.10;;;;;;;9.51;58.81;100386.88;100012;1297;139208;-75
2022/10/21 10:04:22;;;;;;;20.30;11.20;;;;;;;9.58;58.94;100390.52;100416;1290;107477;-74
2022/10/21 10:06:49;;;;;;;14.90;10.30;;;;;;;9.63;58.42;100389.84;100054;1298;96746;-75
2022/10/21 10:09:25;;;;;;;15.80;9.90;;;;;;;9.59;58.21;100389.45;99880;1298;138473;-74
2022/10/21 10:11:56;;;;;;;16.00;10.50;;;;;;;9.50;58.08;100384.80;100015;1288;96489;-74
2022/10/21 10:14:29;;;;;;;17.10;10.10;;;;;;;9.52;58.35;100381.12;99951;1292;138123;-73
2022/10/21 10:16:58;;;;;;;17.30;11.00;;;;;;;9.59;58.43;100376.05;99933;1291;107443;-74
2022/10/21 10:19:27;;;;;;;22.00;10.30;;;;;;;9.71;58.70;100369.84;99940;1297;96471;-74
2022/10/21 10:22:13;;;;;;;26.10;11.50;;;;;;;9.85;58.49;100362.69;99840;1295;138561;-74
2022/10/21 10:24:42;;;;;;;18.50;9.90;;;;;;;10.02;58.55;100366.38;99968;1283;96924;-75
2022/10/21 10:27:17;;;;;;;16.80;9.70;;;;;;;10.20;58.46;100365.73;99856;1291;139555;-75
2022/10/21 10:29:52;;;;;;;17.50;10.10;;;;;;;10.42;58.33;100362.52;99933;1296;109315;-75
2022/10/21 10:32:23;;;;;;;16.80;10.00;;;;;;;10.60;57.92;100351.17;99859;1291;138458;-75
2022/10/21 10:34:57;;;;;;;12.60;9.20;;;;;;;10.77;57.27;100350.66;100310;1297;108235;-75
2022/10/21 10:37:27;;;;;;;14.50;8.90;;;;;;;10.81;56.42;100350.01;99984;1298;96498;-75
2022/10/21 10:39:58;;;;;;;13.00;9.40;;;;;;;10.78;56.21;100347.16;100340;1291;137713;-74
2022/10/21 10:42:28;;;;;;;12.80;8.90;;;;;;;10.79;56.20;100345.02;99942;1291;107964;-74
2022/10/21 10:44:59;;;;;;;14.40;9.40;;;;;;;10.84;56.26;100331.48;100013;1297;137472;-76
2022/10/21 10:47:31;;;;;;;16.00;10.10;;;;;;;10.98;56.63;100319.02;100085;1290;108184;-75
2022/10/21 10:49:58;;;;;;;16.30;10.30;;;;;;;11.17;56.63;100310.73;100201;1294;137969;-75
2022/10/21 10:52:26;;;;;;;12.70;9.50;;;;;;;11.38;56.35;100304.11;100510;1291;109317;-75
2022/10/21 10:55:17;;;;;;;13.90;9.00;;;;;;;11.45;55.59;100309.77;100040;1291;108900;-76
2022/10/21 10:57:50;;;;;;;12.60;9.20;;;;;;;11.51;55.62;100308.19;99951;1291;137618;-74
2022/10/21 11:00:42;;;;;;;16.60;9.50;;;;;;;11.62;55.57;100295.21;100580;1291;108881;-75
2022/10/21 11:03:14;;;;;;;12.80;8.30;;;;;;;11.66;55.53;100292.65;99881;1287;137528;-75
2022/10/21 11:05:44;;;;;;;13.60;8.80;;;;;;;11.65;55.28;100290.77;99998;1290;110639;-74
2022/10/21 11:08:18;;;;;;;17.20;9.20;;;;;;;11.68;55.10;100282.64;99884;1284;137752;-75
2022/10/21 11:10:48;;;;;;;15.60;9.30;;;;;;;11.83;55.06;100275.70;100084;1290;98053;-76
2022/10/21 11:13:18;;;;;;;15.90;8.90;;;;;;;11.89;54.45;100269.20;100003;1291;108373;-75
2022/10/21 11:16:10;;;;;;;11.70;8.70;;;;;;;11.81;54.15;100269.32;100108;1291;137610;-75
2022/10/21 11:18:43;;;;;;;12.80;8.60;;;;;;;11.70;54.53;100260.99;100016;1291;109918;-74
2022/10/21 11:21:32;;;;;;;16.80;8.70;;;;;;;11.56;54.06;100258.70;100897;1284;137633;-75
2022/10/21 11:24:28;;;;;;;13.20;8.70;;;;;;;11.43;54.42;100255.69;100558;1298;95274;-75